createdAt,value
2022-11-03T00:01:37.979Z,6.18
2022-11-03T00:04:07.632Z,6.32
2022-11-03T00:06:36.757Z,5.81
2022-11-03T00:09:07.978Z,6.35
2022-11-03T00:11:37.540Z,6.45
2022-11-03T00:14:06.418Z,6.54
2022-11-03T00:16:37.271Z,6.40
2022-11-03T00:19:06.137Z,6.62
2022-11-03T00:21:34.944Z,5.88
2022-11-03T00:24:03.918Z,6.56
2022-11-03T00:26:34.483Z,6.64
2022-11-03T00:29:03.981Z,6.60
2022-11-03T00:31:33.460Z,6.67
2022-11-03T00:34:05.222Z,6.59
2022-11-03T00:36:35.264Z,6.62
2022-11-03T00:39:04.102Z,6.56
2022-11-03T00:41:32.548Z,6.71
2022-11-03T00:44:01.266Z,6.64
2022-11-03T00:46:30.645Z,6.57
2022-11-03T00:48:59.194Z,6.51
2022-11-03T00:51:30.983Z,6.51
2022-11-03T00:54:01.285Z,6.55
2022-11-03T00:56:31.537Z,6.55
2022-11-03T00:59:01.113Z,6.58
2022-11-03T01:01:31.964Z,6.29
2022-11-03T01:04:18.097Z,6.65
2022-11-03T01:06:52.808Z,6.64
2022-11-03T01:09:22.837Z,6.75
2022-11-03T01:11:57.578Z,6.68
2022-11-03T01:14:28.170Z,6.83
2022-11-03T01:16:56.867Z,6.77
2022-11-03T01:19:25.638Z,6.78
2022-11-03T01:21:55.861Z,6.72
2022-11-03T01:24:24.282Z,6.80
2022-11-03T01:26:52.825Z,6.80
2022-11-03T01:29:21.464Z,6.76
2022-11-03T01:31:50.273Z,6.74
2022-11-03T01:34:20.613Z,6.79
2022-11-03T01:36:49.966Z,6.14
2022-11-03T01:39:22.650Z,6.65
2022-11-03T01:41:52.662Z,6.68
2022-11-03T01:44:31.565Z,6.70
2022-11-03T01:47:15.246Z,6.65
2022-11-03T01:49:49.115Z,6.72
2022-11-03T01:52:21.985Z,6.66
2022-11-03T01:54:57.552Z,6.71
2022-11-03T01:57:29.439Z,6.73
2022-11-03T01:59:59.672Z,6.73
2022-11-03T02:02:29.337Z,6.70
2022-11-03T02:05:00.629Z,6.68
2022-11-03T02:07:35.297Z,6.65
2022-11-03T02:10:05.653Z,6.65
2022-11-03T02:12:34.822Z,6.60
2022-11-03T02:15:06.509Z,6.64
2022-11-03T02:17:36.838Z,6.67
2022-11-03T02:20:10.305Z,6.63
2022-11-03T02:23:14.214Z,6.75
2022-11-03T02:25:47.034Z,6.73
2022-11-03T02:28:19.349Z,6.61
2022-11-03T02:30:53.416Z,6.70
2022-11-03T02:33:39.088Z,6.75
2022-11-03T02:36:14.186Z,6.78
2022-11-03T02:38:48.482Z,6.79
2022-11-03T02:41:19.896Z,6.78
2022-11-03T02:43:50.384Z,6.81
2022-11-03T02:46:20.477Z,6.83
2022-11-03T02:48:50.030Z,6.43
2022-11-03T02:51:18.438Z,6.83
2022-11-03T02:53:55.178Z,6.86
2022-11-03T02:56:26.446Z,6.91
2022-11-03T02:59:01.727Z,6.89
2022-11-03T03:01:37.490Z,6.85
2022-11-03T03:04:09.874Z,6.69
2022-11-03T03:06:43.287Z,6.58
2022-11-03T03:09:15.478Z,7.01
2022-11-03T03:11:48.387Z,7.02
2022-11-03T03:14:19.955Z,7.01
2022-11-03T03:16:58.997Z,7.04
2022-11-03T03:19:38.061Z,7.10
2022-11-03T03:22:17.565Z,7.13
2022-11-03T03:24:53.004Z,6.91
2022-11-03T03:27:28.298Z,7.15
2022-11-03T03:30:00.913Z,7.16
2022-11-03T03:32:32.351Z,7.20
2022-11-03T03:35:04.461Z,7.13
2022-11-03T03:37:34.938Z,7.16
2022-11-03T03:40:06.462Z,7.17
2022-11-03T03:42:39.539Z,7.21
2022-11-03T03:45:11.318Z,7.15
2022-11-03T03:47:39.785Z,7.23
2022-11-03T03:50:08.966Z,7.12
2022-11-03T03:52:38.764Z,7.22
2022-11-03T03:55:09.338Z,7.31
2022-11-03T03:57:39.556Z,7.31
2022-11-03T04:00:09.695Z,7.29
2022-11-03T04:02:38.184Z,6.98
2022-11-03T04:05:07.618Z,7.37
2022-11-03T04:07:51.844Z,7.24
2022-11-03T04:10:22.871Z,7.25
2022-11-03T04:13:10.028Z,7.24
2022-11-03T04:15:57.955Z,7.29
2022-11-03T04:18:43.713Z,7.25
2022-11-03T04:21:31.726Z,7.32
2022-11-03T04:24:01.723Z,7.24
2022-11-03T04:26:30.641Z,7.35
2022-11-03T04:29:03.386Z,7.36
2022-11-03T04:31:37.069Z,7.06
2022-11-03T04:34:06.011Z,7.21
2022-11-03T04:36:34.442Z,7.31
2022-11-03T04:39:02.953Z,6.90
2022-11-03T04:41:34.373Z,7.13
2022-11-03T04:44:09.391Z,7.37
2022-11-03T04:46:38.234Z,7.44
2022-11-03T04:49:12.681Z,7.47
2022-11-03T04:51:41.000Z,7.07
2022-11-03T04:54:23.958Z,7.46
2022-11-03T04:56:52.574Z,6.84
2022-11-03T04:59:22.601Z,7.42
2022-11-03T05:01:51.091Z,7.45
2022-11-03T05:04:20.429Z,7.46
2022-11-03T05:06:52.752Z,7.43
2022-11-03T05:09:24.945Z,7.23
2022-11-03T05:11:53.633Z,7.45
2022-11-03T05:14:27.405Z,7.41
2022-11-03T05:16:56.616Z,7.34
2022-11-03T05:19:29.078Z,7.39
2022-11-03T05:21:59.266Z,7.11
2022-11-03T05:24:28.358Z,7.46
2022-11-03T05:26:59.249Z,7.47
2022-11-03T05:29:35.247Z,7.02
2022-11-03T05:32:04.009Z,7.48
2022-11-03T05:34:39.380Z,7.53
2022-11-03T05:37:27.908Z,7.68
2022-11-03T05:40:00.165Z,7.67
2022-11-03T05:42:37.764Z,7.70
2022-11-03T05:45:17.997Z,7.24
2022-11-03T05:47:46.342Z,7.83
2022-11-03T05:50:22.868Z,7.79
2022-11-03T05:52:55.381Z,7.61
2022-11-03T05:55:30.889Z,7.74
2022-11-03T05:58:01.864Z,7.84
2022-11-03T06:00:34.481Z,7.80
2022-11-03T06:03:03.617Z,7.77
2022-11-03T06:05:34.954Z,7.76
2022-11-03T06:08:05.568Z,7.76
2022-11-03T06:10:38.012Z,7.53
2022-11-03T06:13:15.131Z,7.59
2022-11-03T06:15:47.382Z,7.50
2022-11-03T06:18:18.254Z,7.52
2022-11-03T06:20:51.514Z,7.69
2022-11-03T06:23:20.949Z,7.66
2022-11-03T06:25:50.459Z,7.64
2022-11-03T06:28:22.274Z,7.63
2022-11-03T06:30:52.356Z,7.66
2022-11-03T06:33:24.961Z,7.69
2022-11-03T06:35:56.469Z,7.68
2022-11-03T06:38:27.211Z,7.48
2022-11-03T06:40:55.704Z,7.72
2022-11-03T06:43:27.079Z,7.73
2022-11-03T06:45:59.313Z,7.34
2022-11-03T06:48:29.723Z,7.75
2022-11-03T06:51:00.206Z,7.79
2022-11-03T06:53:33.243Z,7.72
2022-11-03T06:56:01.736Z,7.75
2022-11-03T06:58:33.969Z,7.83
2022-11-03T07:01:14.154Z,7.53
2022-11-03T07:03:42.619Z,7.94
2022-11-03T07:06:19.390Z,7.92
2022-11-03T07:08:50.350Z,7.91
2022-11-03T07:11:21.362Z,7.84
2022-11-03T07:13:53.117Z,7.98
2022-11-03T07:16:29.112Z,8.03
2022-11-03T07:19:00.729Z,8.03
2022-11-03T07:21:39.451Z,8.08
2022-11-03T07:24:17.873Z,7.50
2022-11-03T07:26:46.389Z,8.12
2022-11-03T07:29:22.271Z,8.17
2022-11-03T07:31:55.144Z,8.03
2022-11-03T07:34:27.762Z,8.18
2022-11-03T07:36:58.430Z,8.30
2022-11-03T07:39:37.128Z,8.39
2022-11-03T07:42:16.937Z,8.48
2022-11-03T07:44:46.462Z,8.59
2022-11-03T07:47:22.157Z,8.60
2022-11-03T07:49:50.886Z,8.64
2022-11-03T07:52:22.400Z,8.71
2022-11-03T07:54:52.374Z,8.78
2022-11-03T07:57:23.926Z,8.84
2022-11-03T07:59:54.561Z,8.91
2022-11-03T08:02:32.475Z,8.97
2022-11-03T08:05:01.517Z,9.04
2022-11-03T08:07:30.242Z,9.07
2022-11-03T08:09:58.636Z,8.98
2022-11-03T08:12:27.183Z,9.23
2022-11-03T08:14:55.723Z,9.30
2022-11-03T08:17:24.200Z,9.34
2022-11-03T08:19:54.104Z,9.30
2022-11-03T08:22:25.991Z,9.35
2022-11-03T08:24:54.389Z,9.33
2022-11-03T08:27:23.005Z,9.41
2022-11-03T08:29:51.658Z,9.40
2022-11-03T08:32:20.069Z,9.51
2022-11-03T08:34:48.502Z,9.45
2022-11-03T08:37:18.320Z,8.90
2022-11-03T08:39:46.629Z,9.44
2022-11-03T08:42:15.037Z,9.10
2022-11-03T08:44:43.404Z,9.42
2022-11-03T08:47:11.938Z,9.43
2022-11-03T08:49:40.274Z,9.46
2022-11-03T08:52:08.958Z,9.47
2022-11-03T08:54:39.095Z,9.54
2022-11-03T08:57:07.482Z,9.59
2022-11-03T08:59:36.305Z,9.66
2022-11-03T09:02:04.777Z,9.33
2022-11-03T09:04:33.272Z,9.64
2022-11-03T09:07:02.013Z,9.55
2022-11-03T09:12:20.165Z,9.76
2022-11-03T09:14:48.586Z,9.75
2022-11-03T09:17:16.936Z,9.70
2022-11-03T09:19:45.636Z,9.71
2022-11-03T09:22:14.415Z,9.74
2022-11-03T09:24:42.814Z,9.81
2022-11-03T09:27:11.196Z,9.78
2022-11-03T09:30:10.949Z,9.60
2022-11-03T09:32:29.638Z,9.74
2022-11-03T09:34:58.139Z,9.63
2022-11-03T09:37:26.441Z,9.78
2022-11-03T09:39:54.837Z,9.77
2022-11-03T09:42:23.645Z,9.80
2022-11-03T09:44:54.506Z,9.81
2022-11-03T09:47:25.842Z,9.74
2022-11-03T09:49:54.257Z,9.79
2022-11-03T09:52:25.388Z,9.79
2022-11-03T09:54:56.861Z,9.87
2022-11-03T09:57:28.197Z,9.63
2022-11-03T09:59:58.198Z,9.90
2022-11-03T10:02:29.571Z,9.91
2022-11-03T10:05:00.340Z,9.92
2022-11-03T10:07:31.546Z,9.97
2022-11-03T10:10:01.530Z,9.98
2022-11-03T10:12:33.914Z,9.86
2022-11-03T10:15:03.806Z,10.02
2022-11-03T10:17:32.677Z,10.19
2022-11-03T10:20:02.782Z,10.18
2022-11-03T10:22:31.202Z,10.13
2022-11-03T10:25:29.806Z,10.31
2022-11-03T10:28:20.573Z,10.33
2022-11-03T10:31:12.969Z,10.37
2022-11-03T10:33:43.327Z,10.66
2022-11-03T10:36:25.842Z,10.76
2022-11-03T10:38:54.965Z,10.85
2022-11-03T10:41:24.836Z,10.80
2022-11-03T10:44:08.351Z,11.12
2022-11-03T10:46:54.762Z,11.16
2022-11-03T10:49:23.291Z,11.20
2022-11-03T10:51:53.624Z,11.22
2022-11-03T10:54:24.521Z,11.46
2022-11-03T10:56:54.098Z,11.47
2022-11-03T10:59:27.574Z,11.51
2022-11-03T11:01:58.746Z,11.23
2022-11-03T11:04:27.398Z,11.63
2022-11-03T11:06:56.408Z,11.68
2022-11-03T11:09:27.418Z,11.68
2022-11-03T11:12:06.673Z,11.74
2022-11-03T11:14:40.399Z,11.82
2022-11-03T11:17:33.121Z,11.72
2022-11-03T11:20:29.773Z,11.86
2022-11-03T11:23:53.101Z,11.83
2022-11-03T11:26:42.543Z,11.85
2022-11-03T11:29:46.767Z,11.89
2022-11-03T11:32:59.533Z,11.88
2022-11-03T11:36:04.280Z,11.94
2022-11-03T11:38:59.191Z,11.97
2022-11-03T11:42:05.363Z,12.09
2022-11-03T11:44:55.143Z,12.15
2022-11-03T11:47:35.690Z,12.24
2022-11-03T11:50:36.254Z,12.24
2022-11-03T11:53:15.448Z,11.91
2022-11-03T11:55:48.791Z,12.30
2022-11-03T11:58:25.357Z,12.32
2022-11-03T12:01:00.152Z,12.02
2022-11-03T12:03:32.744Z,12.08
2022-11-03T12:06:02.792Z,12.26
2022-11-03T12:08:32.512Z,12.22
2022-11-03T12:11:03.240Z,11.91
2022-11-03T12:13:47.685Z,12.20
2022-11-03T12:16:30.145Z,12.23
2022-11-03T12:18:59.302Z,12.23
2022-11-03T12:21:49.464Z,12.42
2022-11-03T12:24:29.092Z,12.48
2022-11-03T12:26:57.517Z,12.54
2022-11-03T12:29:26.003Z,12.63
2022-11-03T12:31:54.477Z,12.70
2022-11-03T12:34:23.304Z,12.77
2022-11-03T12:36:56.206Z,12.84
2022-11-03T12:39:24.853Z,12.88
2022-11-03T12:41:53.309Z,12.96
2022-11-03T12:44:21.847Z,13.01
2022-11-03T12:46:50.334Z,11.81
2022-11-03T12:49:18.731Z,12.49
2022-11-03T12:51:47.498Z,13.10
2022-11-03T12:54:17.333Z,13.08
2022-11-03T12:56:45.930Z,13.10
2022-11-03T12:59:14.676Z,12.92
2022-11-03T13:01:43.198Z,12.97
2022-11-03T13:04:12.007Z,13.03
2022-11-03T13:06:40.629Z,13.01
2022-11-03T13:09:09.329Z,12.92
2022-11-03T13:11:56.166Z,12.96
2022-11-03T13:14:26.681Z,12.78
2022-11-03T13:16:55.242Z,12.93
2022-11-03T13:19:23.629Z,12.87
2022-11-03T13:21:52.367Z,12.89
2022-11-03T13:24:20.764Z,12.52
2022-11-03T13:26:50.509Z,12.61
2022-11-03T13:29:18.967Z,12.89
2022-11-03T13:31:47.319Z,12.82
2022-11-03T13:34:15.720Z,12.75
2022-11-03T13:36:44.163Z,12.74
2022-11-03T13:39:12.872Z,12.58
2022-11-03T13:41:41.210Z,12.66
2022-11-03T13:44:11.382Z,12.59
2022-11-03T13:46:39.857Z,12.48
2022-11-03T13:49:51.199Z,12.56
2022-11-03T13:51:56.523Z,12.52
2022-11-03T14:00:05.602Z,12.35
2022-11-03T14:05:22.422Z,12.33
2022-11-03T14:07:51.216Z,11.97
2022-11-03T14:10:19.926Z,12.13
2022-11-03T14:12:47.279Z,11.99
2022-11-03T14:15:17.125Z,12.14
2022-11-03T14:17:45.445Z,12.17
2022-11-03T14:20:14.503Z,12.16
2022-11-03T14:22:43.791Z,12.02
2022-11-03T14:25:12.126Z,12.12
2022-11-03T14:27:40.692Z,12.15
2022-11-03T14:30:10.066Z,12.07
2022-11-03T14:32:39.978Z,12.00
2022-11-03T14:35:09.120Z,11.96
2022-11-03T14:37:37.708Z,11.94
2022-11-03T14:40:07.989Z,11.91
2022-11-03T14:42:35.370Z,11.89
2022-11-03T14:45:03.762Z,11.82
2022-11-03T14:47:32.079Z,11.82
2022-11-03T14:50:01.928Z,11.56
2022-11-03T14:52:30.358Z,11.69
2022-11-03T14:54:58.817Z,11.65
2022-11-03T14:57:27.303Z,11.70
2022-11-03T14:59:55.629Z,11.59
2022-11-03T15:02:24.135Z,11.54
2022-11-03T15:04:52.670Z,11.44
2022-11-03T15:07:22.512Z,10.79
2022-11-03T15:09:51.333Z,11.44
2022-11-03T15:12:19.840Z,11.38
2022-11-03T15:14:48.233Z,11.36
2022-11-03T15:17:16.711Z,11.30
2022-11-03T15:19:45.121Z,11.28
2022-11-03T15:22:13.679Z,11.31
2022-11-03T15:27:31.899Z,11.21
2022-11-03T15:30:00.217Z,11.24
2022-11-03T15:32:32.604Z,11.01
2022-11-03T15:35:03.794Z,11.14
2022-11-03T15:37:32.262Z,10.99
2022-11-03T15:40:02.047Z,11.11
2022-11-03T15:42:30.451Z,11.13
2022-11-03T15:44:59.040Z,11.10
2022-11-03T15:47:27.615Z,10.84
2022-11-03T15:49:56.030Z,11.06
2022-11-03T15:52:24.323Z,10.35
2022-11-03T15:54:53.030Z,10.98
2022-11-03T15:57:22.814Z,10.19
2022-11-03T15:59:53.837Z,10.76
2022-11-03T16:02:40.930Z,10.90
2022-11-03T16:05:11.089Z,10.76
2022-11-03T16:07:40.098Z,10.83
2022-11-03T16:10:09.506Z,10.81
2022-11-03T16:12:39.678Z,10.57
2022-11-03T16:15:09.295Z,10.76
2022-11-03T16:17:42.783Z,10.73
2022-11-03T16:20:14.026Z,10.71
2022-11-03T16:22:42.507Z,10.68
2022-11-03T16:25:13.475Z,10.70
2022-11-03T16:27:45.574Z,10.68
2022-11-03T16:30:14.581Z,10.71
2022-11-03T16:32:43.053Z,10.34
2022-11-03T16:35:11.579Z,10.62
2022-11-03T16:37:40.045Z,10.65
2022-11-03T16:40:13.531Z,10.70
2022-11-03T16:42:46.108Z,10.35
2022-11-03T16:45:19.544Z,10.61
2022-11-03T16:47:48.667Z,10.63
2022-11-03T16:50:17.538Z,10.67
2022-11-03T16:52:46.193Z,10.45
2022-11-03T16:55:15.452Z,10.16
2022-11-03T16:57:43.873Z,10.50
2022-11-03T17:00:16.276Z,10.51
2022-11-03T17:02:45.752Z,10.48
2022-11-03T17:05:17.708Z,10.45
2022-11-03T17:07:52.930Z,10.37
2022-11-03T17:10:22.653Z,10.43
2022-11-03T17:12:51.092Z,10.38
2022-11-03T17:15:20.941Z,10.07
2022-11-03T17:17:49.645Z,10.44
2022-11-03T17:20:18.685Z,10.14
2022-11-03T17:22:47.752Z,10.35
2022-11-03T17:25:16.257Z,10.33
2022-11-03T17:27:47.747Z,8.57
2022-11-03T17:30:20.646Z,10.21
2022-11-03T17:32:53.013Z,10.39
2022-11-03T17:35:24.773Z,10.41
2022-11-03T17:37:54.505Z,10.28
2022-11-03T17:40:25.320Z,10.28
2022-11-03T17:42:54.612Z,9.82
2022-11-03T17:45:26.038Z,10.46
2022-11-03T17:47:55.861Z,10.26
2022-11-03T17:50:26.564Z,9.18
2022-11-03T17:52:55.722Z,10.50
2022-11-03T17:55:30.384Z,10.48
2022-11-03T17:58:02.130Z,10.27
2022-11-03T18:00:32.162Z,10.38
2022-11-03T18:03:02.217Z,10.48
2022-11-03T18:05:32.390Z,10.47
2022-11-03T18:08:02.813Z,10.46
2022-11-03T18:10:34.775Z,10.50
2022-11-03T18:13:17.339Z,10.51
2022-11-03T18:15:47.937Z,10.45
2022-11-03T18:18:22.390Z,10.16
2022-11-03T18:20:53.953Z,10.44
2022-11-03T18:23:23.955Z,10.38
2022-11-03T18:25:53.446Z,9.76
2022-11-03T18:28:21.970Z,10.35
2022-11-03T18:30:53.506Z,10.38
2022-11-03T18:33:26.790Z,10.26
2022-11-03T18:35:55.786Z,10.41
2022-11-03T18:38:26.052Z,8.93
2022-11-03T18:40:54.813Z,10.35
2022-11-03T18:43:25.005Z,10.36
2022-11-03T18:45:53.647Z,10.36
2022-11-03T18:48:24.333Z,10.32
2022-11-03T18:50:54.443Z,10.42
2022-11-03T18:53:25.927Z,10.38
2022-11-03T18:55:59.143Z,10.38
2022-11-03T18:58:27.791Z,10.35
2022-11-03T19:00:56.305Z,10.38
2022-11-03T19:03:26.538Z,10.40
2022-11-03T19:05:56.466Z,10.39
2022-11-03T19:08:27.248Z,10.33
2022-11-03T19:10:57.411Z,10.07
2022-11-03T19:13:30.703Z,10.39
2022-11-03T19:16:01.970Z,10.13
2022-11-03T19:18:37.220Z,10.35
2022-11-03T19:21:13.015Z,10.45
2022-11-03T19:23:47.643Z,10.20
2022-11-03T19:26:22.174Z,10.45
2022-11-03T19:28:56.260Z,10.28
2022-11-03T19:31:28.558Z,10.17
2022-11-03T19:34:00.435Z,10.50
2022-11-03T19:36:32.456Z,10.14
2022-11-03T19:39:02.175Z,10.46
2022-11-03T19:41:48.324Z,10.46
2022-11-03T19:44:17.433Z,10.46
2022-11-03T19:46:46.078Z,10.43
2022-11-03T19:49:20.398Z,10.43
2022-11-03T19:51:49.188Z,10.56
2022-11-03T19:54:22.376Z,10.56
2022-11-03T19:56:51.702Z,10.55
2022-11-03T19:59:20.880Z,10.53
2022-11-03T20:01:50.982Z,10.57
2022-11-03T20:04:21.279Z,10.56
2022-11-03T20:06:49.663Z,10.57
2022-11-03T20:09:20.407Z,10.63
2022-11-03T20:11:48.894Z,10.66
2022-11-03T20:14:21.039Z,10.65
2022-11-03T20:16:50.771Z,10.26
2022-11-03T20:19:22.004Z,10.62
2022-11-03T20:21:52.216Z,10.44
2022-11-03T20:24:22.286Z,10.62
2022-11-03T20:26:53.300Z,10.62
2022-11-03T20:29:23.170Z,10.68
2022-11-03T20:31:52.789Z,10.66
2022-11-03T20:34:24.041Z,10.71
2022-11-03T20:36:53.667Z,10.55
2022-11-03T20:39:24.813Z,10.69
2022-11-03T20:41:57.183Z,10.62
2022-11-03T20:44:27.811Z,10.66
2022-11-03T20:46:57.509Z,10.67
2022-11-03T20:49:28.701Z,10.67
2022-11-03T20:52:00.075Z,10.66
2022-11-03T20:54:30.656Z,10.20
2022-11-03T20:56:59.462Z,10.67
2022-11-03T20:59:33.310Z,10.34
2022-11-03T21:02:05.932Z,10.27
2022-11-03T21:04:37.283Z,10.57
2022-11-03T21:07:07.451Z,10.44
2022-11-03T21:09:37.220Z,10.59
2022-11-03T21:12:08.374Z,10.57
2022-11-03T21:14:38.213Z,10.54
2022-11-03T21:17:30.113Z,10.37
2022-11-03T21:20:04.631Z,10.55
2022-11-03T21:22:54.068Z,10.53
2022-11-03T21:25:25.534Z,10.51
2022-11-03T21:27:55.186Z,10.53
2022-11-03T21:30:24.874Z,10.51
2022-11-03T21:32:54.972Z,10.43
2022-11-03T21:35:25.012Z,10.53
2022-11-03T21:37:54.812Z,10.58
2022-11-03T21:40:24.487Z,10.54
2022-11-03T21:43:11.328Z,10.56
2022-11-03T21:45:39.854Z,10.30
2022-11-03T21:48:26.228Z,10.50
2022-11-03T21:50:56.190Z,10.38
2022-11-03T21:53:24.782Z,10.44
2022-11-03T21:55:53.704Z,10.51
2022-11-03T21:58:22.105Z,10.53
2022-11-03T22:00:50.622Z,10.57
2022-11-03T22:03:19.149Z,10.53
2022-11-03T22:05:47.565Z,10.54
2022-11-03T22:08:17.491Z,10.53
2022-11-03T22:10:45.959Z,10.52
2022-11-03T22:13:14.312Z,10.33
2022-11-03T22:16:00.667Z,10.39
2022-11-03T22:18:29.069Z,10.29
2022-11-03T22:21:16.296Z,10.45
2022-11-03T22:24:08.529Z,10.34
2022-11-03T22:26:59.652Z,10.27
2022-11-03T22:29:45.164Z,10.33
2022-11-03T22:32:16.465Z,10.29
2022-11-03T22:35:02.142Z,10.21
2022-11-03T22:40:16.532Z,10.24
2022-11-03T22:43:02.011Z,10.20
2022-11-03T22:45:47.533Z,10.20
2022-11-03T22:48:15.986Z,10.18
2022-11-03T22:50:44.565Z,10.19
2022-11-03T22:53:30.122Z,10.19
2022-11-03T22:56:02.357Z,10.16
2022-11-03T22:58:31.119Z,10.11
2022-11-03T23:01:00.230Z,10.07
2022-11-03T23:03:32.557Z,10.07
2022-11-03T23:06:02.748Z,10.06
2022-11-03T23:08:32.666Z,10.03
2022-11-03T23:11:10.658Z,9.95
2022-11-03T23:13:39.083Z,9.99
2022-11-03T23:16:13.009Z,9.77
2022-11-03T23:18:58.740Z,9.94
2022-11-03T23:21:28.321Z,9.90
2022-11-03T23:24:14.489Z,9.85
2022-11-03T23:26:44.864Z,9.79
2022-11-03T23:29:14.418Z,9.79
2022-11-03T23:31:44.096Z,9.78
2022-11-03T23:34:13.742Z,9.77
2022-11-03T23:36:42.164Z,9.76
2022-11-03T23:39:15.095Z,9.18
2022-11-03T23:41:45.087Z,9.69
2022-11-03T23:44:13.590Z,9.70
2022-11-03T23:46:59.821Z,9.67
2022-11-03T23:49:28.353Z,9.57
2022-11-03T23:51:56.731Z,9.64
2022-11-03T23:54:25.714Z,9.33
2022-11-03T23:57:09.319Z,9.62
2022-11-03T23:59:37.878Z,9.62
